createdAt,value
2022-09-23T00:00:33.593Z,5.75
2022-09-23T00:01:58.217Z,6.47
2022-09-23T00:03:21.648Z,6.80
2022-09-23T00:04:44.019Z,5.60
2022-09-23T00:06:10.661Z,6.60
2022-09-23T00:07:34.070Z,6.10
2022-09-23T00:14:16.430Z,6.30
2022-09-23T00:15:40.294Z,6.22
2022-09-23T00:17:03.672Z,5.78
2022-09-23T00:18:26.103Z,6.55
2022-09-23T00:19:49.564Z,6.40
2022-09-23T00:21:14.573Z,6.57
2022-09-23T00:22:38.375Z,6.07
2022-09-23T00:24:02.401Z,6.35
2022-09-23T00:25:25.860Z,6.18
2022-09-23T00:26:48.875Z,6.60
2022-09-23T00:28:12.225Z,6.35
2022-09-23T00:29:36.840Z,5.60
2022-09-23T00:31:03.048Z,7.35
2022-09-23T00:32:26.524Z,5.60
2022-09-23T00:33:53.620Z,6.10
2022-09-23T00:35:17.387Z,6.20
2022-09-23T00:36:40.762Z,5.97
2022-09-23T00:38:03.151Z,5.80
2022-09-23T00:39:27.885Z,6.15
2022-09-23T00:40:50.297Z,6.68
2022-09-23T00:42:17.625Z,6.55
2022-09-23T00:43:42.145Z,6.45
2022-09-23T00:45:07.752Z,6.57
2022-09-23T00:46:36.375Z,6.03
2022-09-23T00:48:02.114Z,6.28
2022-09-23T00:49:28.736Z,6.05
2022-09-23T00:50:54.143Z,7.00
2022-09-23T00:52:18.493Z,5.72
2022-09-23T00:53:42.185Z,6.88
2022-09-23T00:55:08.023Z,6.22
2022-09-23T00:56:32.680Z,6.07
2022-09-23T00:57:56.786Z,6.10
2022-09-23T00:59:20.614Z,5.85
2022-09-23T01:00:43.240Z,5.90
2022-09-23T01:02:06.982Z,5.80
2022-09-23T01:03:29.460Z,6.95
2022-09-23T01:04:52.836Z,6.18
2022-09-23T01:06:15.591Z,5.70
2022-09-23T01:07:38.962Z,6.70
2022-09-23T01:09:02.451Z,6.13
2022-09-23T01:10:28.589Z,6.28
2022-09-23T01:11:58.763Z,6.30
2022-09-23T01:13:26.951Z,6.00
2022-09-23T01:14:56.355Z,5.80
2022-09-23T01:16:23.281Z,6.20
2022-09-23T01:17:52.299Z,6.22
2022-09-23T01:19:35.741Z,5.40
2022-09-23T01:21:23.766Z,4.88
2022-09-23T01:22:52.150Z,5.28
2022-09-23T01:24:49.520Z,6.03
2022-09-23T01:26:26.535Z,5.82
2022-09-23T01:28:06.112Z,5.80
2022-09-23T01:29:45.412Z,6.00
2022-09-23T01:31:16.154Z,5.45
2022-09-23T01:32:49.268Z,5.72
2022-09-23T01:34:16.118Z,5.55
2022-09-23T01:35:49.184Z,5.18
2022-09-23T01:37:18.412Z,6.10
2022-09-23T01:38:46.123Z,6.30
2022-09-23T01:40:11.463Z,5.15
2022-09-23T01:41:45.685Z,5.35
2022-09-23T01:43:10.784Z,5.65
2022-09-23T01:44:39.072Z,5.90
2022-09-23T01:46:08.114Z,5.72
2022-09-23T01:47:34.197Z,5.40
2022-09-23T01:49:02.367Z,5.60
2022-09-23T01:50:46.046Z,5.15
2022-09-23T01:52:15.400Z,5.70
2022-09-23T01:53:42.194Z,5.72
2022-09-23T01:55:09.651Z,5.30
2022-09-23T01:56:35.458Z,5.57
2022-09-23T01:58:00.374Z,6.35
2022-09-23T01:59:29.666Z,5.47
2022-09-23T02:00:56.806Z,5.38
2022-09-23T02:02:25.195Z,6.25
2022-09-23T02:03:50.349Z,5.45
2022-09-23T02:05:19.823Z,5.30
2022-09-23T02:06:46.454Z,5.85
2022-09-23T02:08:11.694Z,5.07
2022-09-23T02:09:38.659Z,5.78
2022-09-23T02:11:04.653Z,5.30
2022-09-23T02:12:30.091Z,5.45
2022-09-23T02:13:55.826Z,5.20
2022-09-23T02:15:21.032Z,5.50
2022-09-23T02:16:48.476Z,5.45
2022-09-23T02:18:14.517Z,4.95
2022-09-23T02:19:43.567Z,5.05
2022-09-23T02:21:09.631Z,4.90
2022-09-23T02:22:36.300Z,5.05
2022-09-23T02:24:05.369Z,5.55
2022-09-23T02:25:39.864Z,5.05
2022-09-23T02:27:08.971Z,5.38
2022-09-23T02:28:33.141Z,4.55
2022-09-23T02:30:01.444Z,5.25
2022-09-23T02:31:31.222Z,5.05
2022-09-23T02:32:59.106Z,5.57
2022-09-23T02:34:32.064Z,5.00
2022-09-23T02:35:56.284Z,5.63
2022-09-23T02:37:26.962Z,4.75
2022-09-23T02:38:52.263Z,5.13
2022-09-23T02:40:23.508Z,5.13
2022-09-23T02:41:51.869Z,5.65
2022-09-23T02:43:23.472Z,5.15
2022-09-23T02:44:52.664Z,5.43
2022-09-23T02:46:17.055Z,5.15
2022-09-23T02:47:40.557Z,5.35
2022-09-23T02:49:07.225Z,5.32
2022-09-23T02:50:32.252Z,4.68
2022-09-23T02:51:54.969Z,5.50
2022-09-23T02:53:18.292Z,5.57
2022-09-23T02:54:41.428Z,5.65
2022-09-23T02:56:13.143Z,5.55
2022-09-23T02:57:36.577Z,5.22
2022-09-23T02:58:58.949Z,5.80
2022-09-23T03:00:22.410Z,5.25
2022-09-23T03:01:52.889Z,5.40
2022-09-23T03:03:31.415Z,5.47
2022-09-23T03:05:03.822Z,5.20
2022-09-23T03:06:30.296Z,5.53
2022-09-23T03:08:04.973Z,5.82
2022-09-23T03:09:31.232Z,5.22
2022-09-23T03:10:58.306Z,5.60
2022-09-23T03:12:34.263Z,5.50
2022-09-23T03:14:07.169Z,4.95
2022-09-23T03:15:36.479Z,4.90
2022-09-23T03:17:04.678Z,5.55
2022-09-23T03:18:31.725Z,4.63
2022-09-23T03:19:58.537Z,5.25
2022-09-23T03:21:33.525Z,5.00
2022-09-23T03:23:00.841Z,5.18
2022-09-23T03:24:25.742Z,4.93
2022-09-23T03:25:49.624Z,5.07
2022-09-23T03:27:16.137Z,5.15
2022-09-23T03:28:39.568Z,4.80
2022-09-23T03:30:03.432Z,5.03
2022-09-23T03:31:28.062Z,5.28
2022-09-23T03:32:51.312Z,5.80
2022-09-23T03:34:17.390Z,4.88
2022-09-23T03:36:00.088Z,5.70
2022-09-23T03:37:27.522Z,4.93
2022-09-23T03:38:52.719Z,5.07
2022-09-23T03:40:21.584Z,4.68
2022-09-23T03:41:50.805Z,5.55
2022-09-23T03:43:14.398Z,5.18
2022-09-23T03:44:39.015Z,4.80
2022-09-23T03:46:02.875Z,4.75
2022-09-23T03:47:27.694Z,5.38
2022-09-23T03:48:50.077Z,5.57
2022-09-23T03:50:14.255Z,4.82
2022-09-23T03:51:36.704Z,5.10
2022-09-23T03:53:01.494Z,5.30
2022-09-23T03:54:23.868Z,5.72
2022-09-23T03:55:47.839Z,4.63
2022-09-23T03:57:12.243Z,5.60
2022-09-23T03:58:34.629Z,5.43
2022-09-23T03:59:57.996Z,4.53
2022-09-23T04:01:20.537Z,5.65
2022-09-23T04:02:44.383Z,4.78
2022-09-23T04:04:07.176Z,4.60
2022-09-23T04:05:30.708Z,5.25
2022-09-23T04:06:53.199Z,5.65
2022-09-23T04:08:17.956Z,4.47
2022-09-23T04:09:41.519Z,4.95
2022-09-23T04:11:04.682Z,4.45
2022-09-23T04:12:28.066Z,4.15
2022-09-23T04:13:51.429Z,4.15
2022-09-23T04:15:14.848Z,4.53
2022-09-23T04:16:37.345Z,4.70
2022-09-23T04:18:01.101Z,4.60
2022-09-23T04:19:24.934Z,5.32
2022-09-23T04:20:47.332Z,5.30
2022-09-23T04:22:11.345Z,5.32
2022-09-23T04:23:36.084Z,4.22
2022-09-23T04:24:59.557Z,4.80
2022-09-23T04:26:21.979Z,5.03
2022-09-23T04:27:45.344Z,4.65
2022-09-23T04:29:09.776Z,5.00
2022-09-23T04:30:33.387Z,4.55
2022-09-23T04:31:57.730Z,5.20
2022-09-23T04:33:21.255Z,4.95
2022-09-23T04:34:44.695Z,5.00
2022-09-23T04:36:08.744Z,4.93
2022-09-23T04:37:31.130Z,4.65
2022-09-23T04:38:56.498Z,5.20
2022-09-23T04:40:19.236Z,4.93
2022-09-23T04:41:43.169Z,5.18
2022-09-23T04:43:09.461Z,5.13
2022-09-23T04:44:35.164Z,5.30
2022-09-23T04:46:02.205Z,4.65
2022-09-23T04:47:26.029Z,4.88
2022-09-23T04:48:49.490Z,5.13
2022-09-23T04:50:13.683Z,4.95
2022-09-23T04:51:37.208Z,4.82
2022-09-23T04:53:00.592Z,4.95
2022-09-23T04:54:25.306Z,5.05
2022-09-23T04:55:47.780Z,5.35
2022-09-23T04:57:11.172Z,4.90
2022-09-23T04:58:34.475Z,5.70
2022-09-23T04:59:58.000Z,5.40
2022-09-23T05:01:25.368Z,6.18
2022-09-23T05:02:50.419Z,5.80
2022-09-23T05:04:14.804Z,5.00
2022-09-23T05:05:37.157Z,5.05
2022-09-23T05:07:03.419Z,4.95
2022-09-23T05:08:26.560Z,5.60
2022-09-23T05:09:51.699Z,5.15
2022-09-23T05:11:15.133Z,5.25
2022-09-23T05:12:38.667Z,4.70
2022-09-23T05:14:02.050Z,5.05
2022-09-23T05:15:25.451Z,5.72
2022-09-23T05:16:48.799Z,4.97
2022-09-23T05:18:12.208Z,4.57
2022-09-23T05:19:35.577Z,4.40
2022-09-23T05:20:57.935Z,4.68
2022-09-23T05:22:21.323Z,5.15
2022-09-23T05:23:47.019Z,5.25
2022-09-23T05:25:11.948Z,5.25
2022-09-23T05:26:35.305Z,4.90
2022-09-23T05:27:58.692Z,5.82
2022-09-23T05:29:22.046Z,4.75
2022-09-23T05:30:45.547Z,4.82
2022-09-23T05:32:09.738Z,5.13
2022-09-23T05:33:32.200Z,4.78
2022-09-23T05:34:55.740Z,4.82
2022-09-23T05:36:20.621Z,4.93
2022-09-23T05:37:44.187Z,4.47
2022-09-23T05:39:08.862Z,4.72
2022-09-23T05:40:34.318Z,4.43
2022-09-23T05:42:00.167Z,4.68
2022-09-23T05:43:22.818Z,5.03
2022-09-23T05:44:47.092Z,4.13
2022-09-23T05:46:13.254Z,4.57
2022-09-23T05:47:36.629Z,4.82
2022-09-23T05:49:03.042Z,4.72
2022-09-23T05:50:27.059Z,4.07
2022-09-23T05:51:50.485Z,4.15
2022-09-23T05:53:13.889Z,4.38
2022-09-23T05:54:37.887Z,4.15
2022-09-23T05:57:31.205Z,4.32
2022-09-23T05:58:56.237Z,3.90
2022-09-23T06:00:19.769Z,4.55
2022-09-23T06:01:43.180Z,4.25
2022-09-23T06:03:06.446Z,4.43
2022-09-23T06:04:29.847Z,4.43
2022-09-23T06:05:54.461Z,3.95
2022-09-23T06:07:17.806Z,4.25
2022-09-23T06:08:41.309Z,4.20
2022-09-23T06:10:04.987Z,3.85
2022-09-23T06:11:31.423Z,4.47
2022-09-23T06:12:54.756Z,3.65
2022-09-23T06:14:18.738Z,4.28
2022-09-23T06:15:42.163Z,4.32
2022-09-23T06:17:05.625Z,4.18
2022-09-23T06:18:27.981Z,4.25
2022-09-23T06:19:51.609Z,4.18
2022-09-23T06:21:16.960Z,4.05
2022-09-23T06:22:40.342Z,4.07
2022-09-23T06:24:04.211Z,3.67
2022-09-23T06:25:26.670Z,3.72
2022-09-23T06:26:51.586Z,4.00
2022-09-23T06:28:15.501Z,3.75
2022-09-23T06:29:39.069Z,3.92
2022-09-23T06:31:04.186Z,3.40
2022-09-23T06:32:27.584Z,3.42
2022-09-23T06:33:54.013Z,3.70
2022-09-23T06:35:27.320Z,3.55
2022-09-23T06:36:51.781Z,3.92
2022-09-23T06:38:14.130Z,3.80
2022-09-23T06:39:37.468Z,3.65
2022-09-23T06:41:04.103Z,3.67
2022-09-23T06:42:30.169Z,4.13
2022-09-23T06:43:53.702Z,3.53
2022-09-23T06:45:17.573Z,3.90
2022-09-23T06:46:41.074Z,3.50
2022-09-23T06:48:06.082Z,3.60
2022-09-23T06:49:29.541Z,3.80
2022-09-23T06:50:53.703Z,3.35
2022-09-23T06:52:17.364Z,3.75
2022-09-23T06:53:40.954Z,3.70
2022-09-23T06:55:08.268Z,3.78
2022-09-23T06:56:36.388Z,3.08
2022-09-23T06:58:03.782Z,3.30
2022-09-23T06:59:27.180Z,3.67
2022-09-23T07:00:50.548Z,3.85
2022-09-23T07:02:14.154Z,3.55
2022-09-23T07:03:38.336Z,3.33
2022-09-23T07:05:01.732Z,3.45
2022-09-23T07:06:25.109Z,3.38
2022-09-23T07:07:48.689Z,3.50
2022-09-23T07:09:15.122Z,3.40
2022-09-23T07:10:39.313Z,3.20
2022-09-23T07:12:03.146Z,3.28
2022-09-23T07:13:28.504Z,3.22
2022-09-23T07:14:51.862Z,3.60
2022-09-23T07:16:15.317Z,3.42
2022-09-23T07:17:38.814Z,3.67
2022-09-23T07:19:02.525Z,3.08
2022-09-23T07:20:26.068Z,3.55
2022-09-23T07:21:49.471Z,3.65
2022-09-23T07:23:12.831Z,3.58
2022-09-23T07:24:36.256Z,3.00
2022-09-23T07:26:00.562Z,3.67
2022-09-23T07:27:25.698Z,3.17
2022-09-23T07:28:55.376Z,3.88
2022-09-23T07:30:24.657Z,3.72
2022-09-23T07:31:48.923Z,3.20
2022-09-23T07:33:25.030Z,3.92
2022-09-23T07:34:53.261Z,3.85
2022-09-23T07:36:18.148Z,3.40
2022-09-23T07:37:41.643Z,3.88
2022-09-23T07:39:05.178Z,3.33
2022-09-23T07:40:29.082Z,3.88
2022-09-23T07:41:52.566Z,4.43
2022-09-23T07:43:15.903Z,3.78
2022-09-23T07:44:42.062Z,4.40
2022-09-23T07:46:08.248Z,3.40
2022-09-23T07:47:31.738Z,3.70
2022-09-23T07:48:55.831Z,3.53
2022-09-23T07:50:19.326Z,3.83
2022-09-23T07:51:46.132Z,3.78
2022-09-23T07:53:09.528Z,4.28
2022-09-23T07:54:33.319Z,3.50
2022-09-23T07:55:58.060Z,3.88
2022-09-23T07:57:21.618Z,3.58
2022-09-23T07:58:45.012Z,2.83
2022-09-23T08:00:13.238Z,3.35
2022-09-23T08:01:38.407Z,3.08
2022-09-23T08:03:01.961Z,3.50
2022-09-23T08:04:28.122Z,3.30
2022-09-23T08:05:50.662Z,3.17
2022-09-23T08:07:14.657Z,3.53
2022-09-23T08:08:40.574Z,3.63
2022-09-23T08:10:04.575Z,3.10
2022-09-23T08:11:28.889Z,3.20
2022-09-23T08:12:52.543Z,2.97
2022-09-23T08:14:17.903Z,2.78
2022-09-23T08:15:44.128Z,2.70
2022-09-23T08:17:07.923Z,3.22
2022-09-23T08:18:31.584Z,2.72
2022-09-23T08:19:55.015Z,2.30
2022-09-23T08:21:20.095Z,2.92
2022-09-23T08:22:43.446Z,3.92
2022-09-23T08:24:07.900Z,3.58
2022-09-23T08:25:34.308Z,3.13
2022-09-23T08:26:58.199Z,3.00
2022-09-23T08:28:21.932Z,3.20
2022-09-23T08:29:45.277Z,3.47
2022-09-23T08:31:09.559Z,3.15
2022-09-23T08:32:32.993Z,3.33
2022-09-23T08:33:56.949Z,3.20
2022-09-23T08:35:20.532Z,3.50
2022-09-23T08:36:44.097Z,3.25
2022-09-23T08:38:07.888Z,3.20
2022-09-23T08:39:31.280Z,3.42
2022-09-23T08:40:56.992Z,3.17
2022-09-23T08:42:24.782Z,2.80
2022-09-23T08:43:50.829Z,2.90
2022-09-23T08:45:18.841Z,2.85
2022-09-23T08:46:46.987Z,2.90
2022-09-23T08:48:15.351Z,2.35
2022-09-23T08:49:42.406Z,2.80
2022-09-23T08:51:07.638Z,2.65
2022-09-23T08:52:34.384Z,2.40
2022-09-23T08:53:58.151Z,2.70
2022-09-23T08:55:24.055Z,2.40
2022-09-23T08:56:52.117Z,2.28
2022-09-23T08:58:34.277Z,2.30
2022-09-23T08:59:57.792Z,2.20
2022-09-23T09:01:26.616Z,2.35
2022-09-23T09:02:51.754Z,2.42
2022-09-23T09:04:19.084Z,2.33
2022-09-23T09:05:53.610Z,2.50
2022-09-23T09:07:37.416Z,2.67
2022-09-23T09:09:03.046Z,1.90
2022-09-23T09:10:30.814Z,2.22
2022-09-23T09:11:58.854Z,2.20
2022-09-23T09:13:26.888Z,2.00
2022-09-23T09:14:56.072Z,2.08
2022-09-23T09:16:55.483Z,2.22
2022-09-23T09:18:19.879Z,2.08
2022-09-23T09:19:55.699Z,2.05
2022-09-23T09:21:19.060Z,2.17
2022-09-23T09:22:49.112Z,2.10
2022-09-23T09:24:19.573Z,2.30
2022-09-23T09:25:45.584Z,1.65
2022-09-23T09:27:13.183Z,2.00
2022-09-23T09:28:40.444Z,1.80
2022-09-23T09:30:03.925Z,1.88
2022-09-23T09:31:32.274Z,1.70
2022-09-23T09:33:00.803Z,1.92
2022-09-23T09:34:29.795Z,2.25
2022-09-23T09:36:03.503Z,1.90
2022-09-23T09:37:31.723Z,1.83
2022-09-23T09:38:57.126Z,1.80
2022-09-23T09:40:21.180Z,1.98
2022-09-23T09:41:48.381Z,2.00
2022-09-23T09:43:11.754Z,2.00
2022-09-23T09:44:40.487Z,1.70
2022-09-23T09:46:13.254Z,1.95
2022-09-23T09:47:46.538Z,1.95
2022-09-23T09:49:15.623Z,1.77
2022-09-23T09:50:49.173Z,1.77
2022-09-23T09:52:25.006Z,1.50
2022-09-23T09:53:48.327Z,1.77
2022-09-23T09:55:26.573Z,1.60
2022-09-23T09:56:50.199Z,1.80
2022-09-23T09:58:16.466Z,1.38
2022-09-23T09:59:44.017Z,1.70
2022-09-23T10:01:08.168Z,1.25
2022-09-23T10:02:33.365Z,1.35
2022-09-23T10:03:59.538Z,1.20
2022-09-23T10:05:28.265Z,1.00
2022-09-23T10:07:09.419Z,1.10
2022-09-23T10:08:35.146Z,1.20
2022-09-23T10:10:05.998Z,1.30
2022-09-23T10:11:40.260Z,1.52
2022-09-23T10:13:15.751Z,1.30
2022-09-23T10:14:39.091Z,1.38
2022-09-23T10:16:03.899Z,1.17
2022-09-23T10:17:33.446Z,1.42
2022-09-23T10:18:56.983Z,0.95
2022-09-23T10:20:20.766Z,1.20
2022-09-23T10:21:44.569Z,1.95
2022-09-23T10:23:14.234Z,1.27
2022-09-23T10:24:37.844Z,1.67
2022-09-23T10:26:02.584Z,1.52
2022-09-23T10:27:32.512Z,1.48
2022-09-23T10:28:58.315Z,1.38
2022-09-23T10:30:23.508Z,1.60
2022-09-23T10:31:46.853Z,1.10
2022-09-23T10:33:27.994Z,1.52
2022-09-23T10:34:54.478Z,1.38
2022-09-23T10:36:18.606Z,1.48
2022-09-23T10:37:43.189Z,1.08
2022-09-23T10:39:27.393Z,1.23
2022-09-23T10:42:59.156Z,1.63
2022-09-23T10:44:49.542Z,1.30
2022-09-23T10:46:36.868Z,1.50
2022-09-23T10:48:04.205Z,1.60
2022-09-23T10:49:53.538Z,1.35
2022-09-23T10:51:25.978Z,1.45
2022-09-23T10:53:02.473Z,1.48
2022-09-23T10:54:35.318Z,1.10
2022-09-23T10:56:18.653Z,1.63
2022-09-23T10:57:52.568Z,2.15
2022-09-23T10:59:42.035Z,3.75
2022-09-23T11:01:15.809Z,2.15
2022-09-23T11:03:08.757Z,2.00
2022-09-23T11:04:52.734Z,2.38
2022-09-23T11:06:21.653Z,1.67
2022-09-23T11:07:49.232Z,1.40
2022-09-23T11:09:25.357Z,1.48
2022-09-23T11:11:11.560Z,1.23
2022-09-23T11:12:41.241Z,1.70
2022-09-23T11:14:25.801Z,1.80
2022-09-23T11:15:55.829Z,1.05
2022-09-23T11:17:47.247Z,1.20
2022-09-23T11:19:36.720Z,1.15
2022-09-23T11:21:07.379Z,1.40
2022-09-23T11:22:43.866Z,2.55
2022-09-23T11:24:31.155Z,1.20
2022-09-23T11:26:01.136Z,1.10
2022-09-23T11:27:35.099Z,1.10
2022-09-23T11:29:14.090Z,1.00
2022-09-23T11:30:42.931Z,1.15
2022-09-23T11:32:22.726Z,1.20
2022-09-23T11:33:55.801Z,1.55
2022-09-23T11:35:22.087Z,1.50
2022-09-23T11:36:49.921Z,1.35
2022-09-23T11:38:16.241Z,1.30
2022-09-23T11:39:43.738Z,1.20
2022-09-23T11:41:15.840Z,3.15
2022-09-23T11:42:52.138Z,1.75
2022-09-23T11:44:18.471Z,1.90
2022-09-23T11:45:45.770Z,1.40
2022-09-23T11:47:12.102Z,4.28
2022-09-23T11:48:39.052Z,2.53
2022-09-23T11:50:05.366Z,3.13
2022-09-23T11:51:34.603Z,1.95
2022-09-23T11:53:04.123Z,2.20
2022-09-23T11:54:31.145Z,2.67
2022-09-23T11:56:02.024Z,1.33
2022-09-23T11:57:40.319Z,1.40
2022-09-23T11:59:15.162Z,1.67
2022-09-23T12:00:41.440Z,1.25
2022-09-23T12:02:20.662Z,1.33
2022-09-23T12:03:50.652Z,1.00
2022-09-23T12:05:17.541Z,1.13
2022-09-23T12:06:44.527Z,1.17
2022-09-23T12:08:14.185Z,2.25
2022-09-23T12:09:57.741Z,1.17
2022-09-23T12:11:27.718Z,1.35
2022-09-23T12:12:59.393Z,1.55
2022-09-23T12:14:32.313Z,1.60
2022-09-23T12:16:10.892Z,1.55
2022-09-23T12:17:47.423Z,1.35
2022-09-23T12:19:23.635Z,1.20
2022-09-23T12:20:54.848Z,0.80
2022-09-23T12:22:29.466Z,1.35
2022-09-23T12:24:04.773Z,1.02
2022-09-23T12:25:36.530Z,0.95
2022-09-23T12:27:02.924Z,1.58
2022-09-23T12:28:29.569Z,1.20
2022-09-23T12:29:57.889Z,1.40
2022-09-23T12:31:23.149Z,1.60
2022-09-23T12:32:46.783Z,1.00
2022-09-23T12:34:23.405Z,0.98
2022-09-23T12:35:47.770Z,0.90
2022-09-23T12:37:11.162Z,2.13
2022-09-23T12:38:36.645Z,1.23
2022-09-23T12:40:02.907Z,1.40
2022-09-23T12:41:29.104Z,1.20
2022-09-23T12:42:52.609Z,1.35
2022-09-23T12:44:28.975Z,1.63
2022-09-23T12:45:53.772Z,1.40
2022-09-23T12:47:39.444Z,1.33
2022-09-23T12:49:04.932Z,1.73
2022-09-23T12:50:47.925Z,1.13
2022-09-23T12:52:21.683Z,1.20
2022-09-23T12:54:21.115Z,1.15
2022-09-23T12:55:51.520Z,1.05
2022-09-23T12:57:15.677Z,1.02
2022-09-23T12:58:39.340Z,1.30
2022-09-23T13:00:23.894Z,1.40
2022-09-23T13:01:49.007Z,1.20
2022-09-23T13:03:31.941Z,1.10
2022-09-23T13:05:17.974Z,1.48
2022-09-23T13:06:43.405Z,1.00
2022-09-23T13:08:10.061Z,1.20
2022-09-23T13:09:38.712Z,1.60
2022-09-23T13:11:03.473Z,2.00
2022-09-23T13:12:31.299Z,1.27
2022-09-23T13:13:57.315Z,1.55
2022-09-23T13:15:30.221Z,1.55
2022-09-23T13:16:58.292Z,1.73
2022-09-23T13:18:57.320Z,1.58
2022-09-23T13:20:38.375Z,1.05
2022-09-23T13:22:09.111Z,1.00
2022-09-23T13:23:32.977Z,1.38
2022-09-23T13:24:57.162Z,1.40
2022-09-23T13:26:19.565Z,1.45
2022-09-23T13:27:45.311Z,1.35
2022-09-23T13:29:17.831Z,1.00
2022-09-23T13:30:51.989Z,1.10
2022-09-23T13:32:18.714Z,1.08
2022-09-23T13:33:45.059Z,1.20
2022-09-23T13:35:17.859Z,1.27
2022-09-23T13:36:45.461Z,1.08
2022-09-23T13:38:12.581Z,1.00
2022-09-23T13:39:36.473Z,1.30
2022-09-23T13:41:02.786Z,1.38
2022-09-23T13:42:28.459Z,1.23
2022-09-23T13:43:52.940Z,1.73
2022-09-23T13:45:17.512Z,2.35
2022-09-23T13:46:43.942Z,1.33
2022-09-23T13:48:12.433Z,1.48
2022-09-23T13:49:36.878Z,1.10
2022-09-23T13:51:01.196Z,1.08
2022-09-23T13:52:27.317Z,1.73
2022-09-23T13:53:55.190Z,2.47
2022-09-23T13:55:26.020Z,1.45
2022-09-23T13:56:50.492Z,2.97
2022-09-23T13:58:20.059Z,1.50
2022-09-23T13:59:44.132Z,2.25
2022-09-23T14:01:10.600Z,1.30
2022-09-23T14:02:34.115Z,1.20
2022-09-23T14:03:59.051Z,1.23
2022-09-23T14:05:23.947Z,0.93
2022-09-23T14:06:47.492Z,1.40
2022-09-23T14:08:10.072Z,1.67
2022-09-23T14:09:34.039Z,1.60
2022-09-23T14:10:58.609Z,1.27
2022-09-23T14:12:22.859Z,1.50
2022-09-23T14:13:48.025Z,0.90
2022-09-23T14:15:15.443Z,1.10
2022-09-23T14:16:40.725Z,1.10
2022-09-23T14:18:06.242Z,1.50
2022-09-23T14:19:31.090Z,1.00
2022-09-23T14:20:54.446Z,1.00
2022-09-23T14:22:25.348Z,1.20
2022-09-23T14:23:48.686Z,1.00
2022-09-23T14:25:14.514Z,1.15
2022-09-23T14:26:38.498Z,1.17
2022-09-23T14:28:02.549Z,1.20
2022-09-23T14:29:28.121Z,1.02
2022-09-23T14:30:53.480Z,2.38
2022-09-23T14:32:20.943Z,0.82
2022-09-23T14:33:44.831Z,0.95
2022-09-23T14:35:19.930Z,0.98
2022-09-23T14:37:12.374Z,1.00
2022-09-23T14:38:54.309Z,2.47
2022-09-23T14:40:18.176Z,1.80
2022-09-23T14:41:43.857Z,1.35
2022-09-23T14:43:12.947Z,2.17
2022-09-23T14:44:36.551Z,0.98
2022-09-23T14:46:00.476Z,1.10
2022-09-23T14:47:24.965Z,1.20
2022-09-23T14:49:05.548Z,1.15
2022-09-23T14:50:40.476Z,0.70
2022-09-23T14:52:07.655Z,0.73
2022-09-23T14:53:34.891Z,1.08
2022-09-23T14:54:58.971Z,1.20
2022-09-23T14:56:25.260Z,2.03
2022-09-23T14:57:48.310Z,1.20
2022-09-23T14:59:27.252Z,2.22
2022-09-23T15:00:54.044Z,1.85
2022-09-23T15:02:33.038Z,0.90
2022-09-23T15:03:58.240Z,2.03
2022-09-23T15:05:23.023Z,0.80
2022-09-23T15:06:55.663Z,1.15
2022-09-23T15:08:21.337Z,1.38
2022-09-23T15:09:45.881Z,0.80
2022-09-23T15:11:09.986Z,1.20
2022-09-23T15:12:33.370Z,1.17
2022-09-23T15:14:02.179Z,0.90
2022-09-23T15:15:37.931Z,1.30
2022-09-23T15:17:07.420Z,0.93
2022-09-23T15:18:33.140Z,1.25
2022-09-23T15:19:58.399Z,0.93
2022-09-23T15:21:21.877Z,0.90
2022-09-23T15:22:48.418Z,0.60
2022-09-23T15:24:33.604Z,1.15
2022-09-23T15:25:56.983Z,2.20
2022-09-23T15:27:30.812Z,2.70
2022-09-23T15:28:57.272Z,1.30
2022-09-23T15:30:21.678Z,3.22
2022-09-23T15:31:45.374Z,1.23
2022-09-23T15:33:09.204Z,1.27
2022-09-23T15:34:31.889Z,1.45
2022-09-23T15:35:55.873Z,0.88
2022-09-23T15:37:18.229Z,1.13
2022-09-23T15:38:44.862Z,1.17
2022-09-23T15:40:09.557Z,1.27
2022-09-23T15:41:33.240Z,1.10
2022-09-23T15:42:58.701Z,1.63
2022-09-23T15:44:29.341Z,0.88
2022-09-23T15:45:53.678Z,1.27
2022-09-23T15:47:21.521Z,1.05
2022-09-23T15:48:53.152Z,0.90
2022-09-23T15:50:18.725Z,1.17
2022-09-23T15:51:42.957Z,1.40
2022-09-23T15:53:06.955Z,0.85
2022-09-23T15:54:32.531Z,1.30
2022-09-23T15:55:58.506Z,1.17
2022-09-23T15:57:21.536Z,1.30
2022-09-23T15:58:44.928Z,0.90
2022-09-23T16:00:12.632Z,1.02
2022-09-23T16:01:37.026Z,0.88
2022-09-23T16:03:01.044Z,1.00
2022-09-23T16:04:26.055Z,1.20
2022-09-23T16:05:50.606Z,1.15
2022-09-23T16:07:16.983Z,1.33
2022-09-23T16:08:42.174Z,2.45
2022-09-23T16:10:06.933Z,1.23
2022-09-23T16:11:32.830Z,1.10
2022-09-23T16:13:00.093Z,1.17
2022-09-23T16:14:22.620Z,1.13
2022-09-23T16:15:45.955Z,1.20
2022-09-23T16:17:10.178Z,1.52
2022-09-23T16:18:33.546Z,1.15
2022-09-23T16:19:56.874Z,1.20
2022-09-23T16:21:21.789Z,1.25
2022-09-23T16:22:46.842Z,1.25
2022-09-23T16:24:18.556Z,1.52
2022-09-23T16:25:44.414Z,1.70
2022-09-23T16:27:09.316Z,1.63
2022-09-23T16:28:33.649Z,1.20
2022-09-23T16:29:57.352Z,1.13
2022-09-23T16:31:20.957Z,1.30
2022-09-23T16:32:44.337Z,1.20
2022-09-23T16:34:07.869Z,1.52
2022-09-23T16:35:33.753Z,1.55
2022-09-23T16:36:57.102Z,1.58
2022-09-23T16:38:21.022Z,1.55
2022-09-23T16:39:44.454Z,1.50
2022-09-23T16:41:09.534Z,1.48
2022-09-23T16:42:33.013Z,1.13
2022-09-23T16:43:56.181Z,1.73
2022-09-23T16:45:22.275Z,1.40
2022-09-23T16:46:45.628Z,1.42
2022-09-23T16:48:07.952Z,1.52
2022-09-23T16:49:31.317Z,1.27
2022-09-23T16:50:54.728Z,1.73
2022-09-23T16:52:18.061Z,1.65
2022-09-23T16:53:42.368Z,2.28
2022-09-23T16:55:08.628Z,2.15
2022-09-23T16:56:33.357Z,1.77
2022-09-23T16:57:56.823Z,1.48
2022-09-23T16:59:20.203Z,1.58
2022-09-23T17:01:01.342Z,2.05
2022-09-23T17:02:42.438Z,2.10
2022-09-23T17:04:04.983Z,1.70
2022-09-23T17:05:28.383Z,2.10
2022-09-23T17:06:52.838Z,2.13
2022-09-23T17:08:17.874Z,2.58
2022-09-23T17:09:41.202Z,2.75
2022-09-23T17:11:05.320Z,2.33
2022-09-23T17:12:34.661Z,2.55
2022-09-23T17:13:59.017Z,3.00
2022-09-23T17:15:21.448Z,2.20
2022-09-23T17:16:44.876Z,6.78
2022-09-23T17:18:09.073Z,2.60
2022-09-23T17:19:34.143Z,2.67
2022-09-23T17:21:00.061Z,2.92
2022-09-23T17:22:23.513Z,2.85
2022-09-23T17:23:46.843Z,3.10
2022-09-23T17:25:10.472Z,2.42
2022-09-23T17:26:33.911Z,3.10
2022-09-23T17:27:58.965Z,3.20
2022-09-23T17:29:22.438Z,2.70
2022-09-23T17:30:45.782Z,3.28
2022-09-23T17:32:09.432Z,3.45
2022-09-23T17:33:37.523Z,2.90
2022-09-23T17:35:04.471Z,3.13
2022-09-23T17:36:28.293Z,3.45
2022-09-23T17:37:52.965Z,2.83
2022-09-23T17:39:16.641Z,2.83
2022-09-23T17:40:40.413Z,3.03
2022-09-23T17:42:04.224Z,2.60
2022-09-23T17:43:29.091Z,3.03
2022-09-23T17:44:52.564Z,3.25
2022-09-23T17:46:18.840Z,5.47
2022-09-23T17:47:42.318Z,3.40
2022-09-23T17:49:06.781Z,3.17
2022-09-23T17:50:31.165Z,2.97
2022-09-23T17:51:55.708Z,3.38
2022-09-23T17:53:19.019Z,3.10
2022-09-23T17:54:42.424Z,2.90
2022-09-23T17:56:07.535Z,2.97
2022-09-23T17:57:31.673Z,2.90
2022-09-23T17:58:56.778Z,3.35
2022-09-23T18:00:20.248Z,3.20
2022-09-23T18:01:44.011Z,3.15
2022-09-23T18:03:06.381Z,3.25
2022-09-23T18:04:29.845Z,3.67
2022-09-23T18:05:52.662Z,3.85
2022-09-23T18:07:16.003Z,3.60
2022-09-23T18:08:38.667Z,4.25
2022-09-23T18:10:02.047Z,4.18
2022-09-23T18:11:26.924Z,3.78
2022-09-23T18:12:51.622Z,3.72
2022-09-23T18:14:18.398Z,4.05
2022-09-23T18:15:43.133Z,3.80
2022-09-23T18:17:06.545Z,3.80
2022-09-23T18:18:28.948Z,3.75
2022-09-23T18:19:52.302Z,4.22
2022-09-23T18:21:15.040Z,4.22
2022-09-23T18:22:38.381Z,4.57
2022-09-23T18:24:28.157Z,3.45
2022-09-23T18:25:45.645Z,3.72
2022-09-23T18:27:09.605Z,4.25
2022-09-23T18:28:34.931Z,3.40
2022-09-23T18:29:59.981Z,3.10
2022-09-23T18:31:23.044Z,3.40
2022-09-23T18:32:46.469Z,3.05
2022-09-23T18:34:12.415Z,3.00
2022-09-23T18:35:35.785Z,3.35
2022-09-23T18:36:59.244Z,2.90
2022-09-23T18:38:22.627Z,3.13
2022-09-23T18:39:46.038Z,3.50
2022-09-23T18:41:11.054Z,2.97
2022-09-23T18:42:34.483Z,3.63
2022-09-23T18:43:58.588Z,3.45
2022-09-23T18:45:22.574Z,6.85
2022-09-23T18:46:45.933Z,3.20
2022-09-23T18:48:27.822Z,3.95
2022-09-23T18:50:14.207Z,3.25
2022-09-23T18:51:39.136Z,3.30
2022-09-23T18:53:05.225Z,3.15
2022-09-23T18:54:29.463Z,3.40
2022-09-23T18:55:52.865Z,3.17
2022-09-23T18:57:16.242Z,3.75
2022-09-23T18:58:39.817Z,3.78
2022-09-23T19:00:03.621Z,3.45
2022-09-23T19:01:28.741Z,3.40
2022-09-23T19:02:53.649Z,3.10
2022-09-23T19:04:18.484Z,3.00
2022-09-23T19:05:41.894Z,2.83
2022-09-23T19:07:05.562Z,3.40
2022-09-23T19:08:28.903Z,2.70
2022-09-23T19:09:52.307Z,3.38
2022-09-23T19:11:15.763Z,3.28
2022-09-23T19:12:39.252Z,3.30
2022-09-23T19:14:03.218Z,2.95
2022-09-23T19:15:26.672Z,2.75
2022-09-23T19:16:51.925Z,3.45
2022-09-23T19:18:14.374Z,3.30
2022-09-23T19:19:37.789Z,3.28
2022-09-23T19:21:06.845Z,3.50
2022-09-23T19:22:32.673Z,3.35
2022-09-23T19:23:58.585Z,3.63
2022-09-23T19:25:22.073Z,27.17
2022-09-23T19:26:45.558Z,10.07